PIA234 OMDB-OPIS
Flight info
| Callsign | PIA234 |
|---|---|
| Flight time | N/A |
| Altitude | 35000 |
| Route | IVURO1F IVURO M677 LALDO A791 KATUS M316 GOKSO M561 ASVIB G665 PG G325 HANGU J139 KALMI KALMI1A |
| Aircraft | B77W/H-SDE1E2E3FGHIJ2J3J4J5M1RWXY/LB1D1 |
Departure
| Time | N/A |
|---|---|
| Airport | Dubai International Airport (OMDB) |
Arrival
| Time | 2026-05-03 22:08 |
|---|---|
| Airport | Islamabad International Airport (OPIS) |
| Time | Latitude | Longitude | Altitude | Speed | Heading |
|---|---|---|---|---|---|
| 2026-05-03 20:15 | 25.95762 | 58.57039 | 34742 ft | 554 kts | 61° |
| 2026-05-03 20:15 | 25.98830 | 58.64888 | 34755 ft | 553 kts | 61° |
| 2026-05-03 20:16 | 26.01890 | 58.72735 | 34754 ft | 553 kts | 61° |
| 2026-05-03 20:16 | 26.04945 | 58.80580 | 34749 ft | 553 kts | 61° |
| 2026-05-03 20:17 | 26.07995 | 58.88429 | 34759 ft | 553 kts | 61° |
| 2026-05-03 20:17 | 26.11040 | 58.96277 | 34742 ft | 553 kts | 61° |
| 2026-05-03 20:18 | 26.14083 | 59.04139 | 34765 ft | 553 kts | 61° |
| 2026-05-03 20:18 | 26.17101 | 59.11951 | 34753 ft | 553 kts | 61° |
| 2026-05-03 20:19 | 26.20134 | 59.19815 | 34756 ft | 553 kts | 61° |
| 2026-05-03 20:19 | 26.23168 | 59.27698 | 34760 ft | 553 kts | 61° |
| 2026-05-03 20:20 | 26.26197 | 59.35582 | 34789 ft | 555 kts | 60° |
| 2026-05-03 20:20 | 26.29239 | 59.43516 | 34782 ft | 557 kts | 60° |
| 2026-05-03 20:21 | 26.32280 | 59.51463 | 34784 ft | 557 kts | 60° |
| 2026-05-03 20:21 | 26.35318 | 59.59422 | 34792 ft | 558 kts | 60° |
| 2026-05-03 20:22 | 26.38347 | 59.67370 | 34796 ft | 557 kts | 60° |
| 2026-05-03 20:22 | 26.41440 | 59.75263 | 34791 ft | 552 kts | 57° |
| 2026-05-03 20:23 | 26.45300 | 59.82529 | 34799 ft | 542 kts | 50° |
| 2026-05-03 20:23 | 26.49401 | 59.89589 | 34824 ft | 541 kts | 50° |
| 2026-05-03 20:24 | 26.53452 | 59.96668 | 34822 ft | 541 kts | 50° |
| 2026-05-03 20:24 | 26.57460 | 60.03769 | 34837 ft | 540 kts | 50° |
| 2026-05-03 20:25 | 26.61461 | 60.10882 | 34825 ft | 541 kts | 50° |
| 2026-05-03 20:25 | 26.65462 | 60.17997 | 34860 ft | 540 kts | 50° |
| 2026-05-03 20:26 | 26.69459 | 60.25111 | 34840 ft | 541 kts | 50° |
| 2026-05-03 20:26 | 26.73459 | 60.32251 | 34840 ft | 541 kts | 50° |
| 2026-05-03 20:27 | 26.77449 | 60.39399 | 34856 ft | 542 kts | 50° |
| 2026-05-03 20:27 | 26.81443 | 60.46564 | 34869 ft | 544 kts | 50° |
| 2026-05-03 20:28 | 26.85423 | 60.53715 | 34844 ft | 545 kts | 50° |
| 2026-05-03 20:28 | 26.89418 | 60.60923 | 34850 ft | 546 kts | 52° |
| 2026-05-03 20:28 | 26.91128 | 60.64768 | 34839 ft | 557 kts | 61° |
| 2026-05-03 20:29 | 26.92333 | 60.68930 | 34844 ft | 566 kts | 70° |
| 2026-05-03 20:29 | 26.93262 | 60.77796 | 34867 ft | 579 kts | 84° |
| 2026-05-03 20:30 | 26.93314 | 60.86847 | 34859 ft | 581 kts | 85° |
| 2026-05-03 20:30 | 26.93358 | 60.95901 | 34869 ft | 581 kts | 84° |
| 2026-05-03 20:31 | 26.93488 | 61.04947 | 34895 ft | 581 kts | 83° |
| 2026-05-03 20:31 | 26.93656 | 61.14002 | 34897 ft | 581 kts | 83° |
| 2026-05-03 20:32 | 26.93820 | 61.23064 | 34886 ft | 581 kts | 84° |
| 2026-05-03 20:32 | 26.93968 | 61.32120 | 34904 ft | 581 kts | 84° |
| 2026-05-03 20:33 | 26.94107 | 61.41192 | 34914 ft | 582 kts | 83° |
| 2026-05-03 20:33 | 26.94241 | 61.50273 | 34905 ft | 583 kts | 83° |
| 2026-05-03 20:34 | 26.94369 | 61.59373 | 34902 ft | 584 kts | 84° |
| 2026-05-03 20:34 | 26.94492 | 61.68477 | 34903 ft | 584 kts | 84° |
| 2026-05-03 20:35 | 26.94608 | 61.77516 | 34907 ft | 584 kts | 84° |
| 2026-05-03 20:35 | 26.94721 | 61.86677 | 34903 ft | 584 kts | 84° |
| 2026-05-03 20:36 | 26.94824 | 61.95716 | 34903 ft | 584 kts | 84° |
| 2026-05-03 20:36 | 26.94922 | 62.04822 | 34891 ft | 583 kts | 84° |
| 2026-05-03 20:37 | 26.95001 | 62.12386 | 34891 ft | 583 kts | 84° |
| 2026-05-03 20:37 | 26.95090 | 62.21468 | 34895 ft | 583 kts | 84° |
| 2026-05-03 20:38 | 26.95173 | 62.30538 | 34899 ft | 582 kts | 84° |
| 2026-05-03 20:38 | 26.95249 | 62.39605 | 34896 ft | 581 kts | 84° |
| 2026-05-03 20:39 | 26.95320 | 62.48656 | 34893 ft | 581 kts | 84° |
| 2026-05-03 20:39 | 26.95385 | 62.57694 | 34886 ft | 579 kts | 84° |
| 2026-05-03 20:40 | 26.95445 | 62.66731 | 34889 ft | 579 kts | 84° |
| 2026-05-03 20:40 | 26.95499 | 62.75758 | 34888 ft | 580 kts | 84° |
| 2026-05-03 20:41 | 26.95547 | 62.84802 | 34906 ft | 580 kts | 84° |
| 2026-05-03 20:41 | 26.95589 | 62.93851 | 34900 ft | 580 kts | 84° |
| 2026-05-03 20:42 | 26.95625 | 63.02897 | 34862 ft | 580 kts | 84° |
| 2026-05-03 20:42 | 26.95655 | 63.11939 | 34865 ft | 580 kts | 84° |
| 2026-05-03 20:43 | 26.95680 | 63.20997 | 34861 ft | 580 kts | 84° |
| 2026-05-03 20:43 | 26.95700 | 63.30037 | 34859 ft | 580 kts | 84° |
| 2026-05-03 20:44 | 26.95693 | 63.39016 | 34844 ft | 580 kts | 85° |
| 2026-05-03 20:44 | 26.95660 | 63.48057 | 34861 ft | 579 kts | 85° |
| 2026-05-03 20:45 | 26.95623 | 63.57110 | 34840 ft | 579 kts | 85° |
| 2026-05-03 20:45 | 26.95586 | 63.66138 | 34842 ft | 579 kts | 85° |
| 2026-05-03 20:46 | 26.95545 | 63.75159 | 34863 ft | 579 kts | 85° |
| 2026-05-03 20:46 | 26.95497 | 63.84183 | 34828 ft | 578 kts | 85° |
| 2026-05-03 20:47 | 26.95444 | 63.93140 | 34840 ft | 578 kts | 85° |
| 2026-05-03 20:47 | 26.95385 | 64.02154 | 34849 ft | 578 kts | 85° |
| 2026-05-03 20:48 | 26.96068 | 64.10973 | 34837 ft | 558 kts | 66° |
| 2026-05-03 20:48 | 26.97485 | 64.14952 | 34853 ft | 545 kts | 55° |
| 2026-05-03 20:48 | 26.99438 | 64.18536 | 34853 ft | 532 kts | 45° |
| 2026-05-03 20:48 | 27.01876 | 64.21550 | 34852 ft | 516 kts | 35° |
| 2026-05-03 20:49 | 27.04459 | 64.24365 | 34876 ft | 518 kts | 36° |
| 2026-05-03 20:49 | 27.09597 | 64.30080 | 34860 ft | 522 kts | 37° |
| 2026-05-03 20:50 | 27.14695 | 64.35894 | 34858 ft | 523 kts | 37° |
| 2026-05-03 20:50 | 27.19788 | 64.41759 | 34862 ft | 524 kts | 37° |
| 2026-05-03 20:51 | 27.24872 | 64.47624 | 34852 ft | 524 kts | 37° |
| 2026-05-03 20:51 | 27.29932 | 64.53460 | 34856 ft | 523 kts | 37° |
| 2026-05-03 20:52 | 27.35009 | 64.59318 | 34862 ft | 523 kts | 37° |
| 2026-05-03 20:52 | 27.40084 | 64.65182 | 34857 ft | 522 kts | 38° |
| 2026-05-03 20:53 | 27.45143 | 64.71037 | 34862 ft | 522 kts | 38° |
| 2026-05-03 20:53 | 27.50205 | 64.76901 | 34862 ft | 522 kts | 38° |
| 2026-05-03 20:54 | 27.55273 | 64.82781 | 34845 ft | 523 kts | 38° |
| 2026-05-03 20:54 | 27.62873 | 64.91619 | 34845 ft | 523 kts | 38° |
| 2026-05-03 20:55 | 27.67901 | 64.97474 | 34837 ft | 523 kts | 38° |
| 2026-05-03 20:55 | 27.72966 | 65.03379 | 34833 ft | 523 kts | 38° |
| 2026-05-03 20:56 | 27.78025 | 65.09290 | 34830 ft | 523 kts | 38° |
| 2026-05-03 20:56 | 27.83078 | 65.15200 | 34823 ft | 522 kts | 38° |
| 2026-05-03 20:57 | 27.88121 | 65.21107 | 34826 ft | 522 kts | 38° |
| 2026-05-03 20:57 | 27.93164 | 65.27023 | 34830 ft | 522 kts | 38° |
| 2026-05-03 20:58 | 27.98193 | 65.32929 | 34830 ft | 522 kts | 38° |
| 2026-05-03 20:58 | 28.03225 | 65.38850 | 34836 ft | 522 kts | 38° |
| 2026-05-03 20:59 | 28.08258 | 65.44778 | 34822 ft | 522 kts | 38° |
| 2026-05-03 20:59 | 28.13297 | 65.50713 | 34843 ft | 523 kts | 38° |
| 2026-05-03 21:00 | 28.17491 | 65.55659 | 34834 ft | 523 kts | 38° |
| 2026-05-03 21:00 | 28.23386 | 65.62625 | 34840 ft | 524 kts | 39° |
| 2026-05-03 21:01 | 28.28401 | 65.68562 | 34844 ft | 524 kts | 39° |
| 2026-05-03 21:01 | 28.33453 | 65.74551 | 34851 ft | 525 kts | 39° |
| 2026-05-03 21:02 | 28.38511 | 65.80555 | 34848 ft | 526 kts | 39° |
| 2026-05-03 21:02 | 28.43569 | 65.86549 | 34889 ft | 524 kts | 37° |
| 2026-05-03 21:03 | 28.48992 | 65.91980 | 34878 ft | 518 kts | 33° |
| 2026-05-03 21:03 | 28.54229 | 65.97589 | 34885 ft | 522 kts | 37° |
| 2026-05-03 21:04 | 28.59345 | 66.03435 | 34892 ft | 522 kts | 38° |
| 2026-05-03 21:04 | 28.64478 | 66.09287 | 34896 ft | 521 kts | 37° |
| 2026-05-03 21:05 | 28.69629 | 66.15091 | 34893 ft | 521 kts | 37° |
| 2026-05-03 21:05 | 28.74796 | 66.20886 | 34893 ft | 521 kts | 37° |
| 2026-05-03 21:06 | 28.79959 | 66.26684 | 34960 ft | 521 kts | 37° |
| 2026-05-03 21:06 | 28.85110 | 66.32483 | 34915 ft | 519 kts | 37° |
| 2026-05-03 21:07 | 28.90228 | 66.38258 | 34911 ft | 517 kts | 37° |
| 2026-05-03 21:07 | 28.95324 | 66.44013 | 34907 ft | 515 kts | 37° |
| 2026-05-03 21:08 | 29.00422 | 66.49779 | 34912 ft | 515 kts | 37° |
| 2026-05-03 21:08 | 29.05502 | 66.55531 | 34912 ft | 515 kts | 37° |
| 2026-05-03 21:09 | 29.10604 | 66.61317 | 34919 ft | 516 kts | 37° |
| 2026-05-03 21:09 | 29.15705 | 66.67111 | 34906 ft | 518 kts | 37° |
| 2026-05-03 21:10 | 29.20816 | 66.72929 | 34903 ft | 518 kts | 37° |
| 2026-05-03 21:10 | 29.25916 | 66.78742 | 34895 ft | 517 kts | 37° |
| 2026-05-03 21:11 | 29.31022 | 66.84568 | 34894 ft | 518 kts | 37° |
| 2026-05-03 21:11 | 29.36106 | 66.90379 | 34890 ft | 515 kts | 37° |
| 2026-05-03 21:12 | 29.41179 | 66.96187 | 34878 ft | 516 kts | 37° |
| 2026-05-03 21:12 | 29.46263 | 67.02011 | 34901 ft | 517 kts | 37° |
| 2026-05-03 21:13 | 29.51351 | 67.07853 | 34812 ft | 517 kts | 37° |
| 2026-05-03 21:13 | 29.56422 | 67.13679 | 34841 ft | 516 kts | 37° |
| 2026-05-03 21:14 | 29.61487 | 67.19518 | 34779 ft | 517 kts | 38° |
| 2026-05-03 21:14 | 29.66562 | 67.25376 | 34780 ft | 516 kts | 38° |
| 2026-05-03 21:15 | 29.71592 | 67.31181 | 34750 ft | 513 kts | 38° |
| 2026-05-03 21:15 | 29.76632 | 67.37010 | 34761 ft | 514 kts | 38° |
| 2026-05-03 21:16 | 29.81678 | 67.42855 | 34728 ft | 515 kts | 38° |
| 2026-05-03 21:16 | 29.86729 | 67.48716 | 34749 ft | 515 kts | 38° |
| 2026-05-03 21:17 | 29.90925 | 67.53592 | 34743 ft | 516 kts | 38° |
| 2026-05-03 21:17 | 29.96831 | 67.60464 | 34721 ft | 516 kts | 38° |
| 2026-05-03 21:18 | 30.01887 | 67.66358 | 34744 ft | 516 kts | 38° |
| 2026-05-03 21:18 | 30.06932 | 67.72248 | 34746 ft | 516 kts | 38° |
| 2026-05-03 21:19 | 30.11940 | 67.78103 | 34752 ft | 516 kts | 38° |
| 2026-05-03 21:19 | 30.17013 | 67.84044 | 34798 ft | 516 kts | 38° |
| 2026-05-03 21:20 | 30.21996 | 67.89888 | 34791 ft | 515 kts | 38° |
| 2026-05-03 21:20 | 30.27024 | 67.95793 | 34799 ft | 515 kts | 38° |
| 2026-05-03 21:21 | 30.32042 | 68.01697 | 34829 ft | 515 kts | 38° |
| 2026-05-03 21:21 | 30.37057 | 68.07608 | 34825 ft | 514 kts | 38° |
| 2026-05-03 21:22 | 30.42073 | 68.13528 | 34842 ft | 515 kts | 38° |
| 2026-05-03 21:22 | 30.46238 | 68.18448 | 34870 ft | 514 kts | 38° |
| 2026-05-03 21:23 | 30.51251 | 68.24378 | 34840 ft | 515 kts | 39° |
| 2026-05-03 21:23 | 30.56257 | 68.30313 | 34839 ft | 515 kts | 39° |
| 2026-05-03 21:24 | 30.61265 | 68.36260 | 34828 ft | 515 kts | 39° |
| 2026-05-03 21:24 | 30.66251 | 68.42190 | 34830 ft | 514 kts | 39° |
| 2026-05-03 21:25 | 30.71242 | 68.48133 | 34817 ft | 514 kts | 39° |
| 2026-05-03 21:25 | 30.76224 | 68.54075 | 34836 ft | 514 kts | 39° |
| 2026-05-03 21:26 | 30.81211 | 68.60033 | 34829 ft | 514 kts | 39° |
| 2026-05-03 21:26 | 30.86196 | 68.65998 | 34823 ft | 513 kts | 39° |
| 2026-05-03 21:27 | 30.91165 | 68.71955 | 34821 ft | 512 kts | 39° |
| 2026-05-03 21:27 | 30.96125 | 68.77909 | 34821 ft | 512 kts | 39° |
| 2026-05-03 21:28 | 31.01075 | 68.83860 | 34817 ft | 512 kts | 39° |
| 2026-05-03 21:28 | 31.06038 | 68.89835 | 34833 ft | 513 kts | 39° |
| 2026-05-03 21:29 | 31.10978 | 68.95791 | 34834 ft | 515 kts | 39° |
| 2026-05-03 21:29 | 31.15961 | 69.01810 | 34837 ft | 516 kts | 40° |
| 2026-05-03 21:30 | 31.20935 | 69.07833 | 34839 ft | 515 kts | 40° |
| 2026-05-03 21:30 | 31.25900 | 69.13851 | 34833 ft | 514 kts | 40° |
| 2026-05-03 21:31 | 31.30849 | 69.19859 | 34864 ft | 513 kts | 40° |
| 2026-05-03 21:31 | 31.35802 | 69.25883 | 34838 ft | 514 kts | 40° |
| 2026-05-03 21:32 | 31.40760 | 69.31918 | 34831 ft | 514 kts | 40° |
| 2026-05-03 21:32 | 31.45713 | 69.37960 | 34850 ft | 514 kts | 41° |
| 2026-05-03 21:33 | 31.50665 | 69.44011 | 34830 ft | 514 kts | 41° |
| 2026-05-03 21:33 | 31.55616 | 69.50071 | 34831 ft | 514 kts | 41° |
| 2026-05-03 21:34 | 31.60529 | 69.56092 | 34842 ft | 515 kts | 42° |
| 2026-05-03 21:34 | 31.65478 | 69.62167 | 34831 ft | 516 kts | 42° |
| 2026-05-03 21:35 | 31.70432 | 69.68261 | 34820 ft | 516 kts | 42° |
| 2026-05-03 21:35 | 31.75389 | 69.74368 | 34819 ft | 516 kts | 42° |
| 2026-05-03 21:36 | 31.80341 | 69.80477 | 34814 ft | 516 kts | 43° |
| 2026-05-03 21:36 | 31.85275 | 69.86579 | 34823 ft | 515 kts | 44° |
| 2026-05-03 21:37 | 31.90213 | 69.92693 | 34814 ft | 515 kts | 44° |
| 2026-05-03 21:37 | 31.95158 | 69.98823 | 34785 ft | 516 kts | 44° |
| 2026-05-03 21:38 | 32.00091 | 70.04952 | 34796 ft | 516 kts | 44° |
| 2026-05-03 21:38 | 32.05025 | 70.11090 | 34782 ft | 516 kts | 44° |
| 2026-05-03 21:39 | 32.09966 | 70.17249 | 34788 ft | 516 kts | 44° |
| 2026-05-03 21:39 | 32.14896 | 70.23404 | 34773 ft | 516 kts | 45° |
| 2026-05-03 21:40 | 32.19814 | 70.29555 | 34759 ft | 515 kts | 45° |
| 2026-05-03 21:40 | 32.24726 | 70.35710 | 34749 ft | 514 kts | 45° |
| 2026-05-03 21:41 | 32.29622 | 70.41853 | 34757 ft | 513 kts | 45° |
| 2026-05-03 21:41 | 32.34513 | 70.48001 | 34754 ft | 513 kts | 45° |
| 2026-05-03 21:42 | 32.39404 | 70.54158 | 34760 ft | 513 kts | 45° |
| 2026-05-03 21:42 | 32.44299 | 70.60331 | 34767 ft | 516 kts | 46° |
| 2026-05-03 21:43 | 32.49233 | 70.66560 | 34773 ft | 519 kts | 45° |
| 2026-05-03 21:43 | 32.54147 | 70.72775 | 34765 ft | 521 kts | 46° |
| 2026-05-03 21:44 | 32.59094 | 70.79047 | 34761 ft | 520 kts | 46° |
| 2026-05-03 21:44 | 32.64018 | 70.85301 | 34763 ft | 519 kts | 45° |
| 2026-05-03 21:45 | 32.68933 | 70.91552 | 34759 ft | 522 kts | 47° |
| 2026-05-03 21:45 | 32.73922 | 70.97910 | 34800 ft | 529 kts | 47° |
| 2026-05-03 21:46 | 32.78970 | 71.04355 | 34772 ft | 535 kts | 47° |
| 2026-05-03 21:46 | 32.84052 | 71.10855 | 34758 ft | 537 kts | 47° |
| 2026-05-03 21:47 | 32.89120 | 71.17349 | 34749 ft | 533 kts | 47° |
| 2026-05-03 21:47 | 32.94129 | 71.23778 | 34777 ft | 528 kts | 47° |
| 2026-05-03 21:48 | 32.99128 | 71.30207 | 34783 ft | 529 kts | 47° |
| 2026-05-03 21:48 | 33.04124 | 71.36644 | 34752 ft | 529 kts | 47° |
| 2026-05-03 21:49 | 33.09086 | 71.43048 | 34713 ft | 516 kts | 47° |
| 2026-05-03 21:49 | 33.11497 | 71.46162 | 34431 ft | 505 kts | 48° |
| 2026-05-03 21:49 | 33.13870 | 71.49231 | 33757 ft | 504 kts | 48° |
| 2026-05-03 21:50 | 33.16226 | 71.52281 | 32680 ft | 508 kts | 49° |
| 2026-05-03 21:50 | 33.18666 | 71.55446 | 31536 ft | 514 kts | 49° |
| 2026-05-03 21:50 | 33.21066 | 71.58558 | 30439 ft | 518 kts | 50° |
| 2026-05-03 21:50 | 33.23505 | 71.61724 | 29551 ft | 517 kts | 50° |
| 2026-05-03 21:51 | 33.25927 | 71.64871 | 28823 ft | 510 kts | 49° |
| 2026-05-03 21:51 | 33.28304 | 71.67960 | 28235 ft | 501 kts | 49° |
| 2026-05-03 21:51 | 33.30630 | 71.70984 | 27519 ft | 481 kts | 49° |
| 2026-05-03 21:51 | 33.32856 | 71.73881 | 26159 ft | 467 kts | 49° |
| 2026-05-03 21:52 | 33.35029 | 71.76714 | 24768 ft | 467 kts | 48° |
| 2026-05-03 21:52 | 33.37210 | 71.79563 | 24298 ft | 461 kts | 48° |
| 2026-05-03 21:52 | 33.39369 | 71.82385 | 23676 ft | 458 kts | 47° |
| 2026-05-03 21:52 | 33.41514 | 71.85188 | 22995 ft | 455 kts | 47° |
| 2026-05-03 21:53 | 33.43642 | 71.87972 | 22299 ft | 452 kts | 47° |
| 2026-05-03 21:53 | 33.45734 | 71.90710 | 21660 ft | 448 kts | 47° |
| 2026-05-03 21:53 | 33.47827 | 71.93451 | 21058 ft | 444 kts | 47° |
| 2026-05-03 21:53 | 33.49900 | 71.96168 | 20456 ft | 440 kts | 46° |
| 2026-05-03 21:54 | 33.51946 | 71.98862 | 19858 ft | 433 kts | 48° |
| 2026-05-03 21:54 | 33.53568 | 72.01858 | 19320 ft | 429 kts | 66° |
| 2026-05-03 21:54 | 33.54358 | 72.05247 | 18773 ft | 428 kts | 81° |
| 2026-05-03 21:54 | 33.54466 | 72.08798 | 18183 ft | 426 kts | 95° |
| 2026-05-03 21:55 | 33.54087 | 72.12293 | 17547 ft | 424 kts | 98° |
| 2026-05-03 21:55 | 33.53647 | 72.15776 | 16902 ft | 423 kts | 98° |
| 2026-05-03 21:55 | 33.53201 | 72.19246 | 16286 ft | 420 kts | 98° |
| 2026-05-03 21:55 | 33.52764 | 72.22708 | 15690 ft | 418 kts | 97° |
| 2026-05-03 21:56 | 33.52342 | 72.26135 | 15098 ft | 416 kts | 97° |
| 2026-05-03 21:56 | 33.51930 | 72.29562 | 14488 ft | 414 kts | 97° |
| 2026-05-03 21:56 | 33.51526 | 72.32965 | 13902 ft | 412 kts | 97° |
| 2026-05-03 21:56 | 33.51127 | 72.36349 | 13261 ft | 411 kts | 97° |
| 2026-05-03 21:57 | 33.50732 | 72.39705 | 12651 ft | 409 kts | 97° |
| 2026-05-03 21:57 | 33.50337 | 72.43063 | 12137 ft | 404 kts | 97° |
| 2026-05-03 21:57 | 33.49950 | 72.46329 | 11632 ft | 399 kts | 97° |
| 2026-05-03 21:57 | 33.49572 | 72.49523 | 11083 ft | 396 kts | 97° |
| 2026-05-03 21:58 | 33.49190 | 72.52737 | 10879 ft | 383 kts | 97° |
| 2026-05-03 21:58 | 33.48818 | 72.55852 | 10695 ft | 371 kts | 97° |
| 2026-05-03 21:58 | 33.48457 | 72.58868 | 10539 ft | 359 kts | 97° |
| 2026-05-03 21:58 | 33.48109 | 72.61776 | 10374 ft | 348 kts | 97° |
| 2026-05-03 21:59 | 33.47770 | 72.64599 | 10238 ft | 337 kts | 97° |
| 2026-05-03 21:59 | 33.47452 | 72.67250 | 10104 ft | 327 kts | 97° |
| 2026-05-03 21:59 | 33.47133 | 72.69906 | 9925 ft | 319 kts | 97° |
| 2026-05-03 21:59 | 33.46820 | 72.72512 | 9739 ft | 312 kts | 97° |
| 2026-05-03 22:00 | 33.46514 | 72.75046 | 9546 ft | 304 kts | 97° |
| 2026-05-03 22:00 | 33.46213 | 72.77541 | 9171 ft | 304 kts | 97° |
| 2026-05-03 22:00 | 33.45909 | 72.80046 | 8727 ft | 297 kts | 97° |
| 2026-05-03 22:00 | 33.45586 | 72.82419 | 8208 ft | 283 kts | 99° |
| 2026-05-03 22:01 | 33.45260 | 72.84676 | 7834 ft | 270 kts | 99° |
| 2026-05-03 22:01 | 33.44936 | 72.86915 | 7533 ft | 274 kts | 99° |
| 2026-05-03 22:01 | 33.44609 | 72.89184 | 7215 ft | 278 kts | 99° |
| 2026-05-03 22:01 | 33.44281 | 72.91460 | 6893 ft | 278 kts | 99° |
| 2026-05-03 22:02 | 33.43953 | 72.93744 | 6566 ft | 278 kts | 99° |
| 2026-05-03 22:02 | 33.43626 | 72.96015 | 6341 ft | 273 kts | 99° |
| 2026-05-03 22:02 | 33.43323 | 72.98220 | 6198 ft | 262 kts | 94° |
| 2026-05-03 22:02 | 33.43569 | 73.00304 | 6060 ft | 249 kts | 65° |
| 2026-05-03 22:03 | 33.44569 | 73.01906 | 5844 ft | 246 kts | 40° |
| 2026-05-03 22:03 | 33.46009 | 73.03001 | 5549 ft | 245 kts | 21° |
| 2026-05-03 22:03 | 33.47648 | 73.03518 | 5309 ft | 243 kts | 12° |
| 2026-05-03 22:03 | 33.49289 | 73.03744 | 5145 ft | 236 kts | 356° |
| 2026-05-03 22:04 | 33.50770 | 73.03096 | 4935 ft | 232 kts | 322° |
| 2026-05-03 22:04 | 33.51715 | 73.01581 | 4725 ft | 230 kts | 292° |
| 2026-05-03 22:04 | 33.52143 | 72.99732 | 4419 ft | 230 kts | 284° |
| 2026-05-03 22:04 | 33.52431 | 72.97858 | 4102 ft | 230 kts | 283° |
| 2026-05-03 22:05 | 33.52713 | 72.95996 | 3662 ft | 221 kts | 282° |
| 2026-05-03 22:05 | 33.52978 | 72.94284 | 3455 ft | 198 kts | 282° |
| 2026-05-03 22:05 | 33.53235 | 72.92647 | 3192 ft | 203 kts | 282° |
| 2026-05-03 22:05 | 33.53494 | 72.90986 | 2799 ft | 197 kts | 282° |
| 2026-05-03 22:06 | 33.53656 | 72.89944 | 2632 ft | 187 kts | 282° |
| 2026-05-03 22:06 | 33.53877 | 72.88537 | 2421 ft | 162 kts | 282° |
| 2026-05-03 22:06 | 33.54069 | 72.87306 | 2243 ft | 142 kts | 280° |
| 2026-05-03 22:06 | 33.54288 | 72.85791 | 1972 ft | 137 kts | 281° |
| 2026-05-03 22:07 | 33.54415 | 72.85067 | 1890 ft | 134 kts | 279° |
| 2026-05-03 22:07 | 33.54584 | 72.83987 | 1789 ft | 132 kts | 278° |
| 2026-05-03 22:07 | 33.54723 | 72.83076 | 1771 ft | 115 kts | 280° |
| 2026-05-03 22:07 | 33.54834 | 72.82382 | 1763 ft | 89 kts | 280° |
| 2026-05-03 22:08 | 33.54889 | 72.82044 | 1765 ft | 0 kts | 281° |
| 2026-05-03 22:08 | 33.54892 | 72.82022 | 1767 ft | 10 kts | 280° |
| 2026-05-03 22:08 | 33.54908 | 72.81930 | 1767 ft | 11 kts | 285° |
| 2026-05-03 22:08 | 33.54935 | 72.81841 | 1767 ft | 11 kts | 294° |
| 2026-05-03 22:09 | 33.54972 | 72.81756 | 1768 ft | 11 kts | 303° |
| 2026-05-03 22:09 | 33.55019 | 72.81675 | 1769 ft | 13 kts | 308° |
| 2026-05-03 22:09 | 33.55103 | 72.81596 | 1766 ft | 18 kts | 348° |
| 2026-05-03 22:10 | 33.55332 | 72.81681 | 1773 ft | 18 kts | 77° |
| 2026-05-03 22:10 | 33.55308 | 72.81830 | 1775 ft | 19 kts | 101° |
| 2026-05-03 22:10 | 33.55286 | 72.81980 | 1775 ft | 19 kts | 103° |
| 2026-05-03 22:10 | 33.55263 | 72.82131 | 1773 ft | 19 kts | 100° |
| 2026-05-03 22:11 | 33.55240 | 72.82284 | 1776 ft | 19 kts | 100° |
| 2026-05-03 22:11 | 33.55217 | 72.82434 | 1774 ft | 19 kts | 101° |
| 2026-05-03 22:11 | 33.55194 | 72.82587 | 1774 ft | 19 kts | 101° |
| 2026-05-03 22:11 | 33.55170 | 72.82738 | 1776 ft | 19 kts | 100° |
| 2026-05-03 22:12 | 33.55148 | 72.82890 | 1775 ft | 19 kts | 100° |
| 2026-05-03 22:12 | 33.55198 | 72.83023 | 1777 ft | 19 kts | 48° |
| 2026-05-03 22:12 | 33.55273 | 72.83149 | 1777 ft | 19 kts | 56° |
| 2026-05-03 22:12 | 33.55328 | 72.83224 | 1778 ft | 9 kts | 12° |
| 2026-05-03 22:13 | 33.55371 | 72.83204 | 1779 ft | 6 kts | 332° |
| 2026-05-03 22:13 | 33.55403 | 72.83182 | 1777 ft | 0 kts | 326° |
| 2026-05-03 22:13 | 33.55405 | 72.83181 | 1775 ft | 1 kts | 324° |
| 2026-05-03 22:13 | 33.55409 | 72.83177 | 1778 ft | 1 kts | 324° |
| 2026-05-03 22:14 | 33.55414 | 72.83173 | 1777 ft | 1 kts | 324° |